Time;durP1;ratioP1;P1;durP2;ratioP2;P2;SDS_P1;SDS_P2;PMS_P1;PMS_P2;Temp;Humidity;BMP_temperature;BMP_pressure;BME280_temperature;BME280_humidity;BME280_pressure;Samples;Min_cycle;Max_cycle;Signal;HPM_P1;HPM_P2
2021/01/18 00:02:01;;;;;;;36.85;18.10;;;-3269.80;85.30;;;;;;5069072;28;20029;-71
2021/01/18 00:04:29;;;;;;;32.58;17.67;;;-3269.80;85.70;;;;;;5056895;28;20127;-71
2021/01/18 00:06:55;;;;;;;35.78;18.52;;;-3269.90;86.10;;;;;;5066127;28;20028;-72
2021/01/18 00:09:20;;;;;;;34.67;17.73;;;-3270.00;86.20;;;;;;5063388;28;20033;-72
2021/01/18 00:11:47;;;;;;;29.17;16.98;;;-3270.10;85.90;;;;;;5066978;28;20027;-71
2021/01/18 00:14:12;;;;;;;28.98;16.05;;;-3270.20;85.70;;;;;;5038848;28;20064;-72
2021/01/18 00:16:38;;;;;;;31.15;16.63;;;-3270.30;85.10;;;;;;5068291;28;20064;-72
2021/01/18 00:19:06;;;;;;;32.40;17.33;;;-3270.30;84.70;;;;;;5061040;28;20029;-71
2021/01/18 00:21:31;;;;;;;26.92;16.27;;;-3270.20;84.60;;;;;;5061408;28;20029;-72
2021/01/18 00:23:57;;;;;;;26.38;15.13;;;-3270.40;84.40;;;;;;5050371;28;20492;-71
2021/01/18 00:26:23;;;;;;;31.35;15.45;;;-3270.40;84.00;;;;;;5056331;28;20036;-72
2021/01/18 00:28:48;;;;;;;28.48;14.70;;;-3270.40;84.10;;;;;;5067336;28;20021;-72
2021/01/18 00:31:14;;;;;;;28.13;15.10;;;-3270.50;84.30;;;;;;5062145;28;20421;-73
2021/01/18 00:33:40;;;;;;;30.40;15.38;;;-3270.50;84.30;;;;;;5060020;28;20406;-72
2021/01/18 00:36:06;;;;;;;26.48;14.13;;;-3270.50;84.10;;;;;;5051279;28;20035;-71
2021/01/18 00:38:32;;;;;;;26.05;14.07;;;-3270.60;84.10;;;;;;5056292;28;20074;-72
2021/01/18 00:40:58;;;;;;;25.00;13.27;;;-3270.60;83.70;;;;;;5065969;28;20433;-72
2021/01/18 00:43:23;;;;;;;25.58;13.55;;;-3270.50;83.30;;;;;;5063348;28;20078;-72
2021/01/18 00:45:49;;;;;;;23.50;12.85;;;-3270.40;83.70;;;;;;5040655;28;20036;-71
2021/01/18 00:48:14;;;;;;;27.90;13.38;;;-3270.50;83.60;;;;;;5053263;28;20033;-71
2021/01/18 00:50:40;;;;;;;24.95;13.10;;;-3270.40;83.70;;;;;;5067720;28;20379;-71
2021/01/18 00:53:06;;;;;;;23.92;12.75;;;-3270.50;83.90;;;;;;5060731;28;20032;-72
2021/01/18 00:55:32;;;;;;;22.67;12.35;;;-3270.40;83.80;;;;;;5061075;28;20104;-71
2021/01/18 00:57:58;;;;;;;21.98;12.80;;;-3270.40;83.80;;;;;;5049557;28;20054;-71
2021/01/18 01:00:25;;;;;;;22.77;12.68;;;-3270.40;83.90;;;;;;5055844;28;20029;-71
2021/01/18 01:02:52;;;;;;;25.95;12.68;;;-3270.50;83.80;;;;;;5066253;28;20029;-71
2021/01/18 01:05:20;;;;;;;26.63;14.13;;;-3270.50;84.00;;;;;;5061872;28;20366;-71
2021/01/18 01:07:51;;;;;;;23.83;12.82;;;-3270.50;84.10;;;;;;5065851;28;20036;-72
2021/01/18 01:10:23;;;;;;;27.42;14.32;;;-3270.50;84.20;;;;;;5037729;28;20046;-71
2021/01/18 01:13:00;;;;;;;31.23;15.40;;;-3270.50;84.10;;;;;;5066528;28;20017;-71
2021/01/18 01:15:26;;;;;;;27.52;13.70;;;-3270.50;83.90;;;;;;5045115;28;20188;-71
2021/01/18 01:17:52;;;;;;;23.98;13.27;;;-3270.70;83.70;;;;;;5058315;28;20035;-71
2021/01/18 01:20:19;;;;;;;27.77;13.05;;;-3270.60;83.30;;;;;;5071574;28;20299;-71
2021/01/18 01:22:45;;;;;;;27.20;13.30;;;-3270.50;83.40;;;;;;5041297;28;20033;-68
2021/01/18 01:25:14;;;;;;;26.40;13.38;;;-3270.50;83.80;;;;;;5063220;28;20376;-71
2021/01/18 01:27:40;;;;;;;26.95;14.73;;;-3270.60;83.70;;;;;;5046803;28;20111;-70
2021/01/18 01:30:14;;;;;;;23.50;13.68;;;-3270.60;83.60;;;;;;5055322;28;20029;-70
2021/01/18 01:32:41;;;;;;;24.35;12.95;;;-3270.50;83.50;;;;;;5040957;28;20016;-70
2021/01/18 01:35:09;;;;;;;21.75;11.98;;;-3270.30;83.80;;;;;;5063579;28;20017;-70
2021/01/18 01:37:35;;;;;;;28.00;13.85;;;-3270.40;84.10;;;;;;5063513;28;20024;-71
2021/01/18 01:40:02;;;;;;;25.20;12.63;;;-3270.30;84.30;;;;;;5055957;28;20027;-70
2021/01/18 01:42:28;;;;;;;23.80;12.75;;;-3270.30;85.00;;;;;;5068022;28;20013;-70
2021/01/18 01:44:54;;;;;;;21.55;12.07;;;-3270.30;84.60;;;;;;5058358;28;20032;-71
2021/01/18 01:47:32;;;;;;;25.17;13.43;;;-3270.20;84.70;;;;;;5051308;28;20489;-70
2021/01/18 01:50:00;;;;;;;26.45;13.88;;;-3270.20;85.00;;;;;;5056009;28;20066;-70
2021/01/18 01:52:29;;;;;;;26.83;13.00;;;-3270.20;85.20;;;;;;5068141;28;20033;-71
2021/01/18 01:55:01;;;;;;;27.80;14.38;;;-3270.30;85.30;;;;;;5058005;28;20024;-70
2021/01/18 01:57:29;;;;;;;25.08;12.82;;;-3270.40;85.00;;;;;;5060253;28;20021;-70
2021/01/18 01:59:57;;;;;;;27.98;13.18;;;-3270.40;85.10;;;;;;5066337;28;20020;-70
2021/01/18 02:02:23;;;;;;;23.27;13.00;;;-3270.40;85.10;;;;;;5053860;28;20421;-70
2021/01/18 02:04:49;;;;;;;31.38;13.75;;;-3270.40;85.00;;;;;;5051434;28;20025;-71
2021/01/18 02:07:25;;;;;;;25.15;12.10;;;-3270.40;85.20;;;;;;5042863;28;20036;-71
2021/01/18 02:09:52;;;;;;;26.77;12.90;;;-3270.50;85.30;;;;;;5039978;28;20118;-71
2021/01/18 02:12:18;;;;;;;26.45;13.40;;;-3270.50;85.10;;;;;;5058244;28;20108;-71
2021/01/18 02:14:52;;;;;;;24.70;13.23;;;-3270.70;85.20;;;;;;5064659;28;20094;-71
2021/01/18 02:17:29;;;;;;;23.80;11.75;;;-3270.80;84.90;;;;;;5043884;28;20025;-70
2021/01/18 02:20:31;;;;;;;19.27;11.32;;;-3270.90;84.30;;;;;;5066457;28;20020;-71
2021/01/18 02:23:18;;;;;;;28.88;11.93;;;-3271.10;83.70;;;;;;5045340;28;20382;-71
2021/01/18 02:25:55;;;;;;;21.08;11.20;;;-3271.10;83.20;;;;;;5040642;28;20052;-71
2021/01/18 02:28:26;;;;;;;23.10;11.93;;;-3271.20;83.20;;;;;;5038667;28;20044;-71
2021/01/18 02:31:33;;;;;;;20.02;11.52;;;-3271.20;83.10;;;;;;5058004;28;20043;-71
2021/01/18 02:34:36;;;;;;;21.98;10.40;;;-3271.30;83.00;;;;;;5041767;28;20037;-70
2021/01/18 02:37:39;;;;;;;18.48;10.40;;;-3271.40;82.70;;;;;;5046322;28;20025;-71
2021/01/18 02:40:08;;;;;;;21.77;11.63;;;-3271.40;82.60;;;;;;5039939;28;20064;-71
2021/01/18 02:43:00;;;;;;;21.73;10.95;;;-3271.30;82.70;;;;;;5042949;28;20100;-70
2021/01/18 02:45:26;;;;;;;22.05;11.43;;;-3271.40;83.00;;;;;;5064428;28;20422;-71
2021/01/18 02:47:54;;;;;;;26.23;12.48;;;-3271.40;83.00;;;;;;5054847;28;20036;-71
2021/01/18 02:50:20;;;;;;;20.83;10.52;;;-3271.50;83.10;;;;;;5071000;28;20025;-69
2021/01/18 02:52:46;;;;;;;25.45;11.60;;;-3271.40;82.80;;;;;;5060204;28;20371;-71
2021/01/18 02:55:13;;;;;;;20.73;10.52;;;-3271.50;82.90;;;;;;5065835;28;20143;-71
2021/01/18 02:57:40;;;;;;;21.95;12.38;;;-3271.50;83.20;;;;;;5066900;28;20488;-71
2021/01/18 03:00:11;;;;;;;19.50;10.77;;;-3271.50;83.10;;;;;;5058472;28;20029;-71
2021/01/18 03:02:55;;;;;;;27.45;12.57;;;-3271.60;83.10;;;;;;5043323;28;20017;-72
2021/01/18 03:05:43;;;;;;;21.38;10.93;;;-3271.60;82.90;;;;;;5067301;28;20021;-71
2021/01/18 03:08:16;;;;;;;19.95;10.52;;;-3271.70;83.00;;;;;;5053217;28;20040;-70
2021/01/18 03:10:46;;;;;;;23.42;10.75;;;-3271.70;83.00;;;;;;5090111;28;20025;-71
2021/01/18 03:13:26;;;;;;;24.23;12.93;;;-3271.70;82.90;;;;;;5067881;28;20099;-70
2021/01/18 03:15:58;;;;;;;18.65;10.85;;;-3271.70;82.50;;;;;;5060037;28;20124;-70
2021/01/18 03:18:25;;;;;;;20.98;10.88;;;-3271.70;82.70;;;;;;5053494;28;20086;-70
2021/01/18 03:20:51;;;;;;;23.17;12.02;;;-3271.70;82.50;;;;;;5042392;28;20029;-70
2021/01/18 03:23:17;;;;;;;23.88;11.35;;;-3271.70;82.80;;;;;;5064985;28;20055;-70
2021/01/18 03:25:54;;;;;;;17.92;10.57;;;-3271.80;82.90;;;;;;5067545;28;20046;-71
2021/01/18 03:28:21;;;;;;;20.00;10.77;;;-3271.90;82.70;;;;;;5057284;28;20025;-71
2021/01/18 03:30:50;;;;;;;23.95;11.43;;;-3271.90;82.30;;;;;;5068298;28;20367;-72
2021/01/18 03:33:17;;;;;;;18.52;10.30;;;-3272.00;82.00;;;;;;5063735;28;20021;-71
2021/01/18 03:35:43;;;;;;;26.83;12.65;;;-3271.90;82.10;;;;;;5060759;28;20032;-70
2021/01/18 03:38:09;;;;;;;26.60;12.80;;;-3271.90;82.70;;;;;;5070377;28;20032;-71
2021/01/18 03:40:36;;;;;;;22.17;11.50;;;-3271.90;83.10;;;;;;5039871;28;20393;-71
2021/01/18 03:43:05;;;;;;;22.27;12.05;;;-3272.00;83.90;;;;;;5066604;28;20428;-73
2021/01/18 03:45:36;;;;;;;23.63;11.38;;;-3272.00;83.40;;;;;;5047713;28;20032;-72
2021/01/18 03:48:06;;;;;;;21.23;12.32;;;-3272.00;83.60;;;;;;5071863;28;20033;-72
2021/01/18 03:50:32;;;;;;;23.90;12.95;;;-3272.10;84.10;;;;;;5038170;28;20402;-71
2021/01/18 03:52:57;;;;;;;22.38;12.52;;;-3272.10;84.00;;;;;;5066787;28;20025;-72
2021/01/18 03:55:23;;;;;;;23.10;12.02;;;-3272.20;83.60;;;;;;5064269;28;20025;-72
2021/01/18 03:57:51;;;;;;;23.73;11.93;;;-3272.20;83.70;;;;;;5059333;28;20017;-72
2021/01/18 04:00:20;;;;;;;26.15;13.80;;;-3272.20;83.70;;;;;;5052345;28;20025;-72
2021/01/18 04:02:45;;;;;;;25.05;12.13;;;-3272.30;84.10;;;;;;5040922;28;20112;-72
2021/01/18 04:05:14;;;;;;;24.98;12.60;;;-3272.40;83.80;;;;;;5064860;28;20458;-72
2021/01/18 04:07:44;;;;;;;23.27;12.07;;;-3272.30;83.60;;;;;;5059315;28;20497;-73
2021/01/18 04:10:11;;;;;;;24.10;13.48;;;-3272.40;84.20;;;;;;5039055;28;20486;-73
2021/01/18 04:12:41;;;;;;;22.88;13.43;;;-3272.30;83.50;;;;;;5051261;28;20025;-70
2021/01/18 04:15:09;;;;;;;23.92;13.27;;;-3272.30;84.00;;;;;;5044109;28;20032;-72
2021/01/18 04:17:35;;;;;;;24.70;13.38;;;-3272.20;83.90;;;;;;5061233;28;20055;-71
2021/01/18 04:20:01;;;;;;;72.13;32.70;;;-3272.30;84.00;;;;;;5069058;28;20454;-71
2021/01/18 04:22:29;;;;;;;24.48;12.48;;;-3272.30;84.20;;;;;;5056925;28;20028;-71
2021/01/18 04:24:54;;;;;;;27.02;13.68;;;-3272.30;83.40;;;;;;5048915;28;20021;-71
2021/01/18 04:27:20;;;;;;;25.83;12.10;;;-3272.30;83.80;;;;;;5065142;28;20031;-71
2021/01/18 04:29:45;;;;;;;24.15;12.23;;;-3272.20;83.70;;;;;;5044040;28;20410;-70
2021/01/18 04:32:13;;;;;;;26.23;12.95;;;-3272.20;84.10;;;;;;5052754;28;20020;-71
2021/01/18 04:34:39;;;;;;;26.52;13.13;;;-3272.20;84.50;;;;;;5039746;28;20551;-71
2021/01/18 04:37:05;;;;;;;185.95;77.85;;;-3272.20;84.60;;;;;;5065154;28;20071;-71
2021/01/18 04:39:30;;;;;;;29.52;16.10;;;-3272.30;85.00;;;;;;5046395;28;20059;-71
2021/01/18 04:41:59;;;;;;;25.90;13.70;;;-3272.30;85.10;;;;;;5053364;28;20049;-71
2021/01/18 04:44:26;;;;;;;22.67;12.55;;;-3272.40;85.20;;;;;;5062570;28;20039;-71
2021/01/18 04:46:55;;;;;;;24.48;14.45;;;-3272.40;85.20;;;;;;5070295;28;20033;-70
2021/01/18 04:49:21;;;;;;;23.58;13.18;;;-3272.40;85.40;;;;;;5063930;28;20032;-69
2021/01/18 04:51:49;;;;;;;28.80;14.23;;;-3272.30;85.50;;;;;;5040627;28;20036;-71
2021/01/18 04:54:20;;;;;;;25.30;13.93;;;-3272.30;85.90;;;;;;5068811;28;20046;-69
2021/01/18 04:57:12;;;;;;;25.60;14.48;;;-3272.30;85.40;;;;;;5039732;28;20048;-71
2021/01/18 04:59:46;;;;;;;25.23;14.02;;;-3272.30;86.50;;;;;;5042107;28;20074;-71
2021/01/18 05:02:20;;;;;;;28.20;14.05;;;-3272.30;85.70;;;;;;5035073;28;20467;-71
2021/01/18 05:04:47;;;;;;;28.60;14.00;;;-3272.30;85.90;;;;;;5066954;28;20028;-72
2021/01/18 05:07:27;;;;;;;26.35;14.52;;;-3272.40;86.70;;;;;;5027302;28;20025;-72
2021/01/18 05:10:09;;;;;;;26.27;14.75;;;-3272.40;86.50;;;;;;5067481;28;20024;-71
2021/01/18 05:12:38;;;;;;;27.95;14.00;;;-3272.40;86.10;;;;;;5040356;28;20081;-72
2021/01/18 05:15:08;;;;;;;26.23;14.32;;;-3272.40;85.70;;;;;;5064418;28;20020;-71
2021/01/18 05:17:45;;;;;;;25.00;13.88;;;-3272.30;85.60;;;;;;5065703;28;20017;-71
2021/01/18 05:20:19;;;;;;;25.27;13.48;;;-3272.40;86.20;;;;;;5059207;28;20398;-71
2021/01/18 05:22:50;;;;;;;29.73;14.70;;;-3272.40;86.50;;;;;;5070093;28;20029;-71
2021/01/18 05:25:17;;;;;;;27.77;14.70;;;-3272.40;86.40;;;;;;5061473;28;20024;-71
2021/01/18 05:28:03;;;;;;;29.20;14.85;;;-3272.50;86.40;;;;;;5040656;28;20028;-71
2021/01/18 05:30:35;;;;;;;30.92;15.95;;;-3272.50;86.40;;;;;;5068380;28;20044;-72
2021/01/18 05:33:05;;;;;;;28.30;14.40;;;-3272.50;86.40;;;;;;5059418;28;20021;-71
2021/01/18 05:35:32;;;;;;;29.52;16.90;;;-3272.50;86.30;;;;;;5060900;28;20490;-71
2021/01/18 05:38:00;;;;;;;29.40;14.32;;;-3272.50;86.30;;;;;;5048955;28;20035;-71
2021/01/18 05:40:27;;;;;;;28.27;14.43;;;-3272.60;86.90;;;;;;5055121;28;20478;-72
2021/01/18 05:42:53;;;;;;;27.52;14.73;;;-3272.60;86.20;;;;;;5065445;28;20124;-71
2021/01/18 05:45:30;;;;;;;23.00;12.85;;;-3272.50;86.20;;;;;;5061547;28;20029;-73
2021/01/18 05:47:56;;;;;;;27.73;15.32;;;-3272.60;86.20;;;;;;5069315;28;20449;-72
2021/01/18 05:52:51;;;;;;;28.38;14.35;;;-3272.60;86.30;;;;;;5055762;28;20045;-66
2021/01/18 05:55:24;;;;;;;26.88;14.88;;;-3272.60;86.40;;;;;;5044410;28;20079;-66
2021/01/18 05:57:55;;;;;;;26.38;13.93;;;-3272.60;86.50;;;;;;5065915;28;20025;-67
2021/01/18 06:00:33;;;;;;;31.83;15.25;;;-3272.70;86.60;;;;;;5035557;28;20451;-66
2021/01/18 06:03:04;;;;;;;30.17;15.50;;;-3272.60;86.50;;;;;;5064372;28;20063;-66
2021/01/18 06:05:35;;;;;;;29.08;16.05;;;-3272.60;86.60;;;;;;5042714;28;20456;-66
2021/01/18 06:08:08;;;;;;;29.17;15.85;;;-3272.60;86.30;;;;;;5062532;28;20029;-65
2021/01/18 06:10:34;;;;;;;28.58;15.05;;;-3272.60;86.80;;;;;;5021003;28;20067;-66
2021/01/18 06:13:02;;;;;;;29.05;14.35;;;-3272.60;86.80;;;;;;5046178;28;20065;-66
2021/01/18 06:15:29;;;;;;;28.63;14.65;;;-3272.70;86.80;;;;;;5044073;28;20478;-66
2021/01/18 06:17:56;;;;;;;53.22;21.92;;;-3272.70;86.60;;;;;;5038249;28;20453;-67
2021/01/18 06:20:25;;;;;;;27.42;15.25;;;-3272.70;86.50;;;;;;5049382;28;20029;-66
2021/01/18 06:22:59;;;;;;;28.35;14.95;;;-3272.80;86.70;;;;;;5056859;28;20054;-67
2021/01/18 06:25:36;;;;;;;27.40;15.10;;;-3272.80;86.40;;;;;;5060294;28;20417;-66
2021/01/18 06:28:02;;;;;;;29.02;14.85;;;-3272.90;86.80;;;;;;5059600;28;20167;-66
2021/01/18 06:30:31;;;;;;;28.55;15.43;;;-3272.90;86.20;;;;;;5042469;28;20124;-66
2021/01/18 06:33:10;;;;;;;29.30;14.88;;;-3272.90;86.10;;;;;;5028107;28;20021;-66
2021/01/18 06:35:36;;;;;;;28.92;15.65;;;-3272.90;86.20;;;;;;5048685;28;20029;-67
2021/01/18 06:38:07;;;;;;;29.05;15.10;;;-3272.90;86.30;;;;;;5066395;28;20379;-66
2021/01/18 06:40:40;;;;;;;29.58;15.38;;;-3272.90;86.70;;;;;;5037355;28;20024;-67
2021/01/18 06:43:08;;;;;;;30.38;15.82;;;-3273.00;87.70;;;;;;5062535;28;20029;-67
2021/01/18 06:45:40;;;;;;;27.80;14.63;;;-3273.00;87.10;;;;;;5062293;28;20082;-67
2021/01/18 06:48:08;;;;;;;32.22;17.02;;;-3273.00;86.60;;;;;;5053805;28;20029;-67
2021/01/18 06:50:36;;;;;;;34.47;16.35;;;-3273.00;86.90;;;;;;5020733;28;20432;-67
2021/01/18 06:53:15;;;;;;;33.50;16.73;;;-3272.90;86.80;;;;;;5063091;28;20108;-67
2021/01/18 06:56:05;;;;;;;31.67;16.15;;;-3273.00;87.40;;;;;;5063454;28;20028;-67
2021/01/18 06:58:50;;;;;;;33.65;17.42;;;-3273.00;87.00;;;;;;5053199;28;20394;-65
2021/01/18 07:01:33;;;;;;;30.75;16.73;;;-3273.10;87.00;;;;;;5061120;28;20036;-67
2021/01/18 07:04:06;;;;;;;33.58;16.77;;;-3273.00;86.60;;;;;;5066793;28;20053;-67
2021/01/18 07:06:33;;;;;;;35.85;17.88;;;-3273.00;87.10;;;;;;5054169;28;20036;-67
2021/01/18 07:09:04;;;;;;;30.02;16.30;;;-3273.00;87.10;;;;;;5066282;28;20044;-67
2021/01/18 07:11:30;;;;;;;30.35;16.98;;;-3273.00;87.60;;;;;;5037642;28;20029;-66
2021/01/18 07:13:56;;;;;;;28.95;16.50;;;-3273.10;87.40;;;;;;5040358;28;20035;-66
2021/01/18 07:16:27;;;;;;;32.85;16.67;;;-3273.20;87.30;;;;;;5066474;28;20025;-66
2021/01/18 07:18:59;;;;;;;33.42;17.88;;;-3273.20;86.90;;;;;;5030028;28;20025;-67
2021/01/18 07:21:28;;;;;;;34.30;17.25;;;-3273.20;86.80;;;;;;5051799;28;20035;-67
2021/01/18 07:23:59;;;;;;;37.95;18.73;;;-3273.20;87.10;;;;;;5055539;28;20036;-69
2021/01/18 07:26:57;;;;;;;30.85;16.92;;;-3273.20;87.20;;;;;;5067780;28;20072;-67
2021/01/18 07:29:25;;;;;;;32.85;16.90;;;-3273.20;86.90;;;;;;5063534;28;20573;-68
2021/01/18 07:31:55;;;;;;;33.00;17.63;;;-3273.10;87.10;;;;;;5044149;28;20107;-66
2021/01/18 07:34:26;;;;;;;41.53;19.10;;;-3273.10;87.40;;;;;;5057226;28;20017;-67
2021/01/18 07:36:53;;;;;;;35.33;17.67;;;-3273.10;87.50;;;;;;5067069;28;20025;-66
2021/01/18 07:39:31;;;;;;;37.90;19.73;;;-3273.10;87.70;;;;;;5053975;28;20035;-67
2021/01/18 07:41:57;;;;;;;34.35;17.40;;;-3273.30;88.20;;;;;;5068702;28;20061;-67
2021/01/18 07:44:36;;;;;;;33.92;19.00;;;-3273.40;88.20;;;;;;5056986;28;20021;-68
2021/01/18 07:47:10;;;;;;;40.25;18.67;;;-3273.40;88.10;;;;;;5065132;28;20029;-65
2021/01/18 07:49:36;;;;;;;37.97;18.45;;;-3273.40;88.40;;;;;;5064928;28;20382;-66
2021/01/18 07:52:25;;;;;;;35.30;18.88;;;-3273.50;88.30;;;;;;5056668;28;20551;-66
2021/01/18 07:54:52;;;;;;;42.63;21.13;;;-3273.50;88.40;;;;;;5021848;28;20033;-65
2021/01/18 07:57:28;;;;;;;36.85;19.23;;;-3273.50;88.00;;;;;;5062133;28;20381;-66
2021/01/18 08:00:19;;;;;;;41.08;18.95;;;-3273.50;88.00;;;;;;5056650;28;20021;-65
2021/01/18 08:03:08;;;;;;;33.67;19.38;;;-3273.60;87.60;;;;;;5042770;28;20478;-65
2021/01/18 08:05:36;;;;;;;42.88;20.98;;;-3273.70;88.10;;;;;;5040384;28;20062;-66
2021/01/18 08:08:02;;;;;;;35.70;18.70;;;-3273.80;88.10;;;;;;5068949;28;20393;-66
2021/01/18 08:11:02;;;;;;;38.60;18.60;;;-3273.80;87.50;;;;;;5057182;28;20035;-66
2021/01/18 08:13:30;;;;;;;36.03;19.75;;;-3273.80;87.40;;;;;;5062510;28;20187;-65
2021/01/18 08:16:17;;;;;;;41.10;20.55;;;-3273.90;88.00;;;;;;5067993;28;20077;-66
2021/01/18 08:18:49;;;;;;;34.28;19.70;;;-3273.90;88.20;;;;;;5031816;28;20039;-67
2021/01/18 08:21:33;;;;;;;40.03;19.98;;;-3274.00;88.30;;;;;;5062945;28;20061;-67
2021/01/18 08:24:10;;;;;;;37.92;19.73;;;-3274.00;88.10;;;;;;5068232;28;20128;-67
2021/01/18 08:26:55;;;;;;;44.35;19.80;;;-3274.10;88.10;;;;;;5023058;28;20024;-66
2021/01/18 08:29:36;;;;;;;39.95;20.23;;;-3274.10;87.90;;;;;;5062529;28;20388;-67
2021/01/18 08:32:23;;;;;;;40.03;20.05;;;-3274.20;87.90;;;;;;5068462;28;20025;-67
2021/01/18 08:34:53;;;;;;;40.10;20.95;;;-3274.20;87.50;;;;;;5044478;28;20370;-67
2021/01/18 08:37:19;;;;;;;40.42;20.13;;;-3274.20;88.30;;;;;;5062663;28;20436;-67
2021/01/18 08:40:14;;;;;;;44.33;21.83;;;-3274.20;87.90;;;;;;5048060;28;20100;-67
2021/01/18 08:42:41;;;;;;;38.25;21.00;;;-3274.30;88.10;;;;;;5040282;28;20012;-66
2021/01/18 08:45:08;;;;;;;39.65;21.13;;;-3274.30;87.90;;;;;;5053163;28;20413;-66
2021/01/18 08:47:35;;;;;;;40.85;21.85;;;-3274.30;88.10;;;;;;5040268;28;20032;-66
2021/01/18 08:50:26;;;;;;;41.72;20.90;;;-3274.40;87.80;;;;;;5067018;28;20034;-66
2021/01/18 08:53:01;;;;;;;42.58;21.98;;;-3274.50;88.40;;;;;;5029263;28;20430;-67
2021/01/18 08:55:29;;;;;;;43.00;21.70;;;-3274.60;89.00;;;;;;5043360;28;20025;-66
2021/01/18 08:58:03;;;;;;;44.03;21.83;;;-3274.70;88.60;;;;;;5044992;28;20064;-67
2021/01/18 09:00:46;;;;;;;41.78;21.02;;;-3274.70;88.20;;;;;;5068257;28;20024;-66
2021/01/18 09:03:19;;;;;;;50.88;24.15;;;-3274.80;88.30;;;;;;5031230;28;20024;-67
2021/01/18 09:05:52;;;;;;;40.22;23.10;;;-3274.90;88.40;;;;;;5056853;28;20028;-65
2021/01/18 09:08:20;;;;;;;44.22;22.20;;;-3274.90;88.40;;;;;;5067044;28;20025;-66
2021/01/18 09:10:57;;;;;;;42.10;21.95;;;-3275.00;88.20;;;;;;5055543;28;20025;-66
2021/01/18 09:13:25;;;;;;;42.85;22.63;;;-3275.10;87.70;;;;;;5041368;28;20021;-67
2021/01/18 09:15:53;;;;;;;44.00;23.85;;;-3275.10;87.10;;;;;;5045804;28;20050;-67
2021/01/18 09:18:19;;;;;;;47.20;24.73;;;-3275.00;87.10;;;;;;5065116;28;20037;-67
2021/01/18 09:20:46;;;;;;;44.22;23.75;;;-3275.00;87.40;;;;;;5051999;28;20027;-66
2021/01/18 09:23:13;;;;;;;42.03;23.70;;;-3275.00;88.20;;;;;;5037496;28;20399;-66
2021/01/18 09:25:39;;;;;;;46.03;25.58;;;-3275.00;87.80;;;;;;5055290;28;20030;-67
2021/01/18 09:28:13;;;;;;;47.50;25.60;;;-3275.10;88.30;;;;;;5053636;28;20032;-67
2021/01/18 09:30:43;;;;;;;44.55;24.20;;;-3275.20;88.20;;;;;;5040038;28;20096;-67
2021/01/18 09:33:11;;;;;;;32.17;18.47;;;-3275.50;88.70;;;;;;5045090;28;20474;-67
2021/01/18 09:35:39;;;;;;;37.45;21.98;;;-3275.70;87.90;;;;;;5045272;28;20025;-66
2021/01/18 09:38:06;;;;;;;40.35;22.92;;;-3275.90;86.80;;;;;;5037169;28;20033;-67
2021/01/18 09:40:33;;;;;;;39.90;22.55;;;-3276.00;87.00;;;;;;5049969;28;20028;-67
2021/01/18 09:42:59;;;;;;;42.25;21.48;;;-3276.20;86.80;;;;;;5039714;28;20547;-67
2021/01/18 09:45:26;;;;;;;42.63;22.40;;;-3276.10;85.30;;;;;;5058657;28;20025;-67
2021/01/18 09:47:53;;;;;;;44.95;23.85;;;-3275.90;85.40;;;;;;5063987;28;20036;-67
2021/01/18 09:50:20;;;;;;;42.22;22.75;;;-3275.80;86.00;;;;;;5054080;28;20071;-67
2021/01/18 09:52:51;;;;;;;46.80;24.95;;;-3275.80;86.40;;;;;;5065778;28;20043;-69
2021/01/18 09:55:30;;;;;;;41.00;23.65;;;-3275.80;86.20;;;;;;5057153;28;20429;-68
2021/01/18 09:58:13;;;;;;;41.78;23.80;;;-3275.80;86.40;;;;;;5066044;28;20481;-67
2021/01/18 10:00:43;;;;;;;45.85;23.70;;;-3276.00;86.60;;;;;;5022162;28;20066;-66
2021/01/18 10:03:09;;;;;;;40.22;23.63;;;-3276.10;86.10;;;;;;5063010;28;20079;-67
2021/01/18 10:05:47;;;;;;;44.20;25.15;;;-3276.00;85.70;;;;;;5061011;28;20029;-68
2021/01/18 10:08:23;;;;;;;48.15;25.98;;;-3275.90;85.90;;;;;;5064907;28;20048;-66
2021/01/18 10:10:51;;;;;;;49.25;25.60;;;-3275.80;86.60;;;;;;5045418;28;20020;-66
2021/01/18 10:13:25;;;;;;;47.28;27.08;;;-3275.90;86.80;;;;;;5050686;28;20112;-68
2021/01/18 10:15:51;;;;;;;46.13;26.20;;;-3275.80;86.70;;;;;;5056924;28;20137;-66
2021/01/18 10:18:30;;;;;;;48.13;25.50;;;-3275.80;87.50;;;;;;5067542;28;20129;-65
2021/01/18 10:20:56;;;;;;;54.92;25.65;;;-3276.10;87.50;;;;;;5026749;28;20033;-66
2021/01/18 10:23:24;;;;;;;53.83;27.17;;;-3276.20;86.60;;;;;;5060858;28;20548;-68
2021/01/18 10:25:50;;;;;;;47.80;25.67;;;-3276.20;86.60;;;;;;5065518;28;20474;-67
2021/01/18 10:28:18;;;;;;;48.90;24.90;;;-3276.20;86.70;;;;;;5054244;28;20040;-68
2021/01/18 10:30:44;;;;;;;45.03;24.40;;;-3276.40;87.10;;;;;;5060391;28;20024;-68
2021/01/18 10:33:17;;;;;;;46.00;25.48;;;-3276.50;86.20;;;;;;5062079;28;20033;-68
2021/01/18 10:35:46;;;;;;;48.55;25.88;;;-3276.50;85.80;;;;;;5046225;28;20086;-66
2021/01/18 10:38:25;;;;;;;43.55;22.88;;;-3276.60;86.30;;;;;;5053822;28;20052;-65
2021/01/18 10:41:06;;;;;;;44.83;24.20;;;0.00;86.40;;;;;;5064383;28;20056;-65
2021/01/18 10:43:31;;;;;;;47.67;24.45;;;0.20;85.10;;;;;;5062472;28;20035;-67
2021/01/18 10:45:59;;;;;;;45.17;23.45;;;0.30;84.60;;;;;;5055238;28;20112;-66
2021/01/18 10:48:32;;;;;;;47.38;24.25;;;0.10;85.00;;;;;;5066876;28;20017;-66
2021/01/18 10:51:01;;;;;;;48.55;25.45;;;0.00;86.10;;;;;;5050803;28;20106;-67
2021/01/18 10:53:32;;;;;;;43.75;25.15;;;0.10;86.00;;;;;;5061668;28;20070;-65
2021/01/18 10:56:15;;;;;;;50.60;26.67;;;0.10;85.80;;;;;;5034810;28;20045;-66
2021/01/18 10:58:41;;;;;;;54.97;27.63;;;0.10;85.80;;;;;;5040319;28;20020;-67
2021/01/18 11:01:16;;;;;;;68.57;31.15;;;0.40;86.40;;;;;;5045906;28;20120;-65
2021/01/18 11:03:43;;;;;;;49.42;19.88;;;0.80;87.40;;;;;;5048400;28;20482;-67
2021/01/18 11:06:14;;;;;;;31.52;12.77;;;1.20;88.70;;;;;;5056939;28;20482;-66
2021/01/18 11:08:40;;;;;;;28.80;10.40;;;1.60;88.70;;;;;;5065293;28;20020;-66
2021/01/18 11:11:26;;;;;;;30.95;10.68;;;2.00;87.90;;;;;;5047429;28;20082;-68
2021/01/18 11:14:06;;;;;;;21.42;7.38;;;2.30;87.00;;;;;;5067671;28;20068;-68
2021/01/18 11:16:32;;;;;;;26.17;9.63;;;2.50;86.20;;;;;;5057615;28;20558;-69
2021/01/18 11:19:02;;;;;;;43.78;17.85;;;2.70;85.80;;;;;;5067894;28;20021;-68
2021/01/18 11:21:28;;;;;;;50.45;22.17;;;2.90;84.90;;;;;;5047467;28;20025;-66
2021/01/18 11:23:54;;;;;;;32.13;12.82;;;3.10;84.60;;;;;;5059156;28;20029;-66
2021/01/18 11:26:23;;;;;;;40.50;18.35;;;3.30;83.80;;;;;;5070186;28;20481;-67
2021/01/18 11:28:49;;;;;;;57.10;24.88;;;3.70;83.20;;;;;;5059912;28;20028;-67
2021/01/18 11:31:20;;;;;;;13.13;6.88;;;3.90;82.40;;;;;;5046753;28;20028;-66
2021/01/18 11:33:45;;;;;;;21.75;8.82;;;4.00;81.40;;;;;;5049588;28;20056;-67
2021/01/18 11:36:12;;;;;;;38.88;16.73;;;3.80;82.10;;;;;;5057032;28;20516;-68
2021/01/18 11:38:39;;;;;;;17.48;8.63;;;3.80;82.70;;;;;;5069780;28;20474;-68
2021/01/18 11:41:04;;;;;;;24.95;10.48;;;3.80;82.70;;;;;;5061974;28;20060;-65
2021/01/18 11:43:34;;;;;;;27.30;11.38;;;3.90;82.80;;;;;;5044910;28;20494;-70
2021/01/18 11:46:00;;;;;;;24.27;10.63;;;3.90;82.80;;;;;;5051576;28;20028;-68
2021/01/18 11:48:26;;;;;;;31.60;13.68;;;3.90;82.70;;;;;;5039364;28;20032;-68
2021/01/18 11:50:54;;;;;;;31.33;12.95;;;3.80;83.00;;;;;;5068328;28;20128;-67
2021/01/18 11:53:20;;;;;;;36.95;12.90;;;3.70;83.40;;;;;;5063644;28;20035;-67
2021/01/18 11:55:53;;;;;;;28.45;13.05;;;3.50;84.40;;;;;;5060005;28;20041;-66
2021/01/18 11:58:20;;;;;;;52.40;20.70;;;3.40;84.90;;;;;;5069882;28;20024;-66
2021/01/18 12:00:46;;;;;;;48.25;19.90;;;3.40;85.20;;;;;;5058809;28;20035;-67
2021/01/18 12:03:12;;;;;;;32.17;11.95;;;3.40;85.40;;;;;;5064506;28;20025;-67
2021/01/18 12:05:37;;;;;;;54.35;20.27;;;3.30;85.70;;;;;;5062732;28;20025;-67
2021/01/18 12:08:03;;;;;;;16.70;8.07;;;3.20;86.30;;;;;;5069247;28;20024;-67
2021/01/18 12:10:32;;;;;;;29.33;10.52;;;3.20;86.30;;;;;;5038482;28;20359;-66
2021/01/18 12:13:00;;;;;;;31.58;13.60;;;3.10;86.90;;;;;;5063917;28;20435;-68
2021/01/18 12:15:25;;;;;;;27.00;8.32;;;3.20;87.10;;;;;;5063172;28;20024;-69
2021/01/18 12:17:51;;;;;;;65.15;27.42;;;3.20;87.10;;;;;;5058621;28;20025;-69
2021/01/18 12:20:19;;;;;;;20.00;7.28;;;3.30;87.10;;;;;;5051709;28;20123;-68
2021/01/18 12:22:45;;;;;;;45.92;17.85;;;3.40;87.30;;;;;;5058567;28;20470;-69
2021/01/18 12:25:12;;;;;;;29.25;12.40;;;3.50;86.70;;;;;;5064435;28;20100;-68